Time;durP1;ratioP1;P1;durP2;ratioP2;P2;SDS_P1;SDS_P2;PMS_P1;PMS_P2;Temp;Humidity;BMP_temperature;BMP_pressure;BME280_temperature;BME280_humidity;BME280_pressure;Samples;Min_cycle;Max_cycle;Signal;HPM_P1;HPM_P2
2021/12/31 00:00:17;;;;;;;13.60;7.63;;;;;;;18.66;65.19;99401.97;3153022;28;20044;-88
2021/12/31 00:01:49;;;;;;;15.27;6.65;;;;;;;18.66;65.54;99401.97;3142707;28;20597;-87
2021/12/31 00:03:21;;;;;;;18.38;7.28;;;;;;;18.65;65.52;99400.31;3143006;28;20049;-85
2021/12/31 00:04:53;;;;;;;14.43;6.68;;;;;;;18.64;65.47;99396.81;3144197;28;20040;-84
2021/12/31 00:06:25;;;;;;;18.35;7.18;;;;;;;18.62;65.53;99406.88;3141672;28;20424;-86
2021/12/31 00:07:57;;;;;;;15.65;6.55;;;;;;;18.63;65.51;99403.19;3139558;28;20049;-85
2021/12/31 00:09:29;;;;;;;12.38;6.20;;;;;;;18.63;65.59;99402.34;3142035;28;20514;-86
2021/12/31 00:11:03;;;;;;;12.40;5.97;;;;;;;18.62;65.60;99406.06;3142370;28;20056;-86
2021/12/31 00:12:35;;;;;;;12.70;6.38;;;;;;;18.61;65.65;99404.38;3143257;28;20056;-87
2021/12/31 00:14:07;;;;;;;15.18;6.10;;;;;;;18.61;65.80;99407.06;3150539;28;20056;-87
2021/12/31 00:15:39;;;;;;;15.05;6.53;;;;;;;18.58;65.73;99402.88;3140500;28;20052;-86
2021/12/31 00:17:11;;;;;;;15.52;6.78;;;;;;;18.57;65.90;99401.22;3139221;28;20267;-86
2021/12/31 00:18:43;;;;;;;15.25;7.60;;;;;;;18.56;66.11;99398.75;3142340;28;20566;-87
2021/12/31 00:20:17;;;;;;;20.98;7.10;;;;;;;18.56;66.18;99402.25;3142512;28;20071;-86
2021/12/31 00:21:51;;;;;;;19.80;7.88;;;;;;;18.51;66.36;99394.75;3142603;28;20540;-86
2021/12/31 00:23:25;;;;;;;14.45;6.20;;;;;;;18.51;66.34;99404.66;3139609;28;20441;-86
2021/12/31 00:24:58;;;;;;;17.70;7.20;;;;;;;18.51;66.34;99399.28;3143328;28;20079;-84
2021/12/31 00:26:31;;;;;;;15.13;6.53;;;;;;;18.48;66.29;99399.66;3142226;28;20568;-87
2021/12/31 00:28:04;;;;;;;15.50;7.90;;;;;;;18.48;66.42;99402.34;3141918;28;20085;-85
2021/12/31 00:29:36;;;;;;;16.35;6.63;;;;;;;18.43;66.49;99397.53;3139996;28;20337;-84
2021/12/31 00:31:08;;;;;;;16.50;7.85;;;;;;;18.44;66.37;99404.56;3140515;28;20233;-84
2021/12/31 00:32:39;;;;;;;11.00;6.05;;;;;;;18.44;66.55;99404.56;3138064;28;20049;-85
2021/12/31 00:34:11;;;;;;;12.40;7.43;;;;;;;18.42;66.71;99409.28;3141318;28;20040;-86
2021/12/31 00:35:43;;;;;;;18.25;7.43;;;;;;;18.41;66.64;99404.91;3143426;28;20078;-85
2021/12/31 00:37:25;;;;;;;11.10;6.43;;;;;;;18.39;66.93;99401.59;3142476;28;20106;-86
2021/12/31 00:38:57;;;;;;;10.93;6.32;;;;;;;18.37;66.68;99400.94;3142934;28;20048;-85
2021/12/31 00:40:29;;;;;;;14.93;7.40;;;;;;;18.37;66.70;99409.00;3141946;28;20082;-87
2021/12/31 00:42:02;;;;;;;16.67;6.25;;;;;;;18.36;67.11;99403.81;3141853;28;20408;-87
2021/12/31 00:43:34;;;;;;;15.23;6.82;;;;;;;18.35;67.16;99405.66;3142651;28;20055;-85
2021/12/31 00:45:07;;;;;;;16.75;7.65;;;;;;;18.35;67.05;99405.66;3142063;28;20040;-86
2021/12/31 00:46:39;;;;;;;14.35;6.82;;;;;;;18.33;67.01;99398.78;3142070;28;20060;-86
2021/12/31 00:48:12;;;;;;;11.25;5.65;;;;;;;18.32;66.99;99403.34;3152025;28;20048;-86
2021/12/31 00:49:44;;;;;;;20.13;6.78;;;;;;;18.29;66.94;99409.09;3154788;28;20048;-85
2021/12/31 00:51:16;;;;;;;13.48;7.32;;;;;;;18.29;66.94;99412.59;3152537;28;20419;-86
2021/12/31 00:52:48;;;;;;;11.93;4.97;;;;;;;18.26;67.08;99404.06;3154005;28;20050;-85
2021/12/31 00:54:20;;;;;;;15.45;7.32;;;;;;;18.26;67.23;99406.75;3153940;28;20478;-87
2021/12/31 00:55:52;;;;;;;13.43;6.22;;;;;;;18.24;67.11;99408.78;3155084;28;20044;-85
2021/12/31 00:57:25;;;;;;;16.35;6.55;;;;;;;18.23;67.10;99413.34;3153402;28;20591;-87
2021/12/31 00:58:57;;;;;;;12.30;7.30;;;;;;;18.23;67.11;99417.88;3153852;28;20044;-86
2021/12/31 01:00:29;;;;;;;11.50;4.93;;;;;;;18.24;67.25;99424.91;3151869;28;20056;-85
2021/12/31 01:02:03;;;;;;;16.63;6.30;;;;;;;18.21;67.06;99422.59;3153436;28;20076;-84
2021/12/31 01:03:35;;;;;;;16.67;6.45;;;;;;;18.19;67.13;99421.91;3149904;28;20070;-87
2021/12/31 01:05:08;;;;;;;17.67;8.07;;;;;;;18.18;66.98;99420.25;3152824;28;20075;-86
2021/12/31 01:06:40;;;;;;;13.98;6.20;;;;;;;18.17;67.16;99419.44;3152625;28;20158;-86
2021/12/31 01:08:11;;;;;;;13.95;6.35;;;;;;;18.17;67.13;99421.28;3155844;28;20052;-86
2021/12/31 01:09:43;;;;;;;12.38;6.68;;;;;;;18.19;66.91;99429.97;3154816;28;20044;-86
2021/12/31 01:11:15;;;;;;;11.38;5.35;;;;;;;18.18;66.93;99434.50;3153547;28;20040;-86
2021/12/31 01:12:50;;;;;;;14.75;6.68;;;;;;;18.18;66.81;99439.88;3153151;28;20067;-86
2021/12/31 01:14:28;;;;;;;12.80;5.95;;;;;;;18.17;66.94;99442.78;3152656;28;20395;-85
2021/12/31 01:16:02;;;;;;;9.77;5.65;;;;;;;18.16;66.80;99435.72;3155896;28;20068;-86
2021/12/31 01:17:47;;;;;;;16.38;5.95;;;;;;;18.16;66.79;99438.41;3154074;28;20040;-86
2021/12/31 01:21:09;;;;;;;13.93;6.43;;;;;;;18.10;67.05;99439.94;3149332;28;20047;-85
2021/12/31 01:22:40;;;;;;;11.68;6.40;;;;;;;18.09;67.03;99443.66;3143114;28;20059;-85
2021/12/31 01:24:12;;;;;;;11.25;5.80;;;;;;;18.08;67.07;99445.53;3141099;28;20056;-87
2021/12/31 01:25:44;;;;;;;10.90;5.82;;;;;;;18.06;67.18;99442.16;3140506;28;20323;-86
2021/12/31 01:27:16;;;;;;;13.10;5.60;;;;;;;18.05;67.18;99443.19;3140886;28;20144;-85
2021/12/31 01:28:50;;;;;;;10.52;6.80;;;;;;;18.03;67.19;99437.16;3144491;28;20058;-86
2021/12/31 01:30:22;;;;;;;13.65;6.20;;;;;;;18.03;67.10;99444.41;3145731;28;20044;-86
2021/12/31 01:31:55;;;;;;;14.93;6.47;;;;;;;18.02;67.20;99443.53;3143924;28;20070;-86
2021/12/31 01:33:26;;;;;;;10.60;6.53;;;;;;;18.04;67.30;99441.50;3140816;28;20392;-85
2021/12/31 01:34:59;;;;;;;13.80;5.78;;;;;;;18.00;67.10;99440.22;3141340;28;20415;-86
2021/12/31 01:36:31;;;;;;;12.55;5.20;;;;;;;18.00;67.23;99439.38;3141189;28;20093;-86
2021/12/31 01:38:03;;;;;;;9.85;6.45;;;;;;;18.01;67.25;99438.34;3143687;28;20052;-86
2021/12/31 01:39:35;;;;;;;11.35;6.40;;;;;;;18.01;67.28;99441.88;3144524;28;20043;-85
2021/12/31 01:41:07;;;;;;;10.73;6.55;;;;;;;18.00;67.22;99436.69;3148503;28;20110;-86
2021/12/31 01:42:39;;;;;;;13.57;5.97;;;;;;;17.96;67.16;99436.22;3141316;28;20174;-86
2021/12/31 01:44:12;;;;;;;14.18;6.30;;;;;;;17.96;67.16;99435.38;3142871;28;20090;-87
2021/12/31 01:45:53;;;;;;;10.05;5.93;;;;;;;17.95;67.14;99436.41;3139998;28;20048;-86
2021/12/31 01:47:34;;;;;;;10.75;5.32;;;;;;;17.93;67.11;99433.88;3140498;28;20478;-86
2021/12/31 01:49:18;;;;;;;11.45;5.75;;;;;;;17.93;67.22;99430.38;3140983;28;20044;-86
2021/12/31 01:50:50;;;;;;;13.52;5.93;;;;;;;17.91;67.10;99441.28;3142863;28;20048;-87
2021/12/31 01:52:23;;;;;;;9.25;5.10;;;;;;;17.90;67.11;99434.25;3140884;28;20585;-86
2021/12/31 01:53:55;;;;;;;12.63;5.15;;;;;;;17.89;67.09;99432.59;3143392;28;20051;-86
2021/12/31 01:55:30;;;;;;;9.63;5.68;;;;;;;17.90;67.07;99434.25;3141841;28;20072;-86
2021/12/31 01:57:04;;;;;;;10.48;5.85;;;;;;;17.86;67.10;99439.16;3142154;28;20588;-86
2021/12/31 01:58:36;;;;;;;8.70;4.93;;;;;;;17.86;67.03;99432.94;3140410;28;20040;-86
2021/12/31 02:00:11;;;;;;;8.50;5.90;;;;;;;17.85;67.18;99432.09;3141213;28;20040;-86
2021/12/31 02:01:43;;;;;;;11.32;5.45;;;;;;;17.85;67.13;99436.63;3141036;28;20126;-86
2021/12/31 02:03:15;;;;;;;12.98;5.97;;;;;;;17.83;67.11;99436.81;3140866;28;20049;-85
2021/12/31 02:04:47;;;;;;;7.00;5.50;;;;;;;17.81;67.14;99436.16;3141440;28;20528;-86
2021/12/31 02:06:19;;;;;;;8.70;4.68;;;;;;;17.82;67.33;99434.31;3136262;28;20041;-86
2021/12/31 02:07:51;;;;;;;12.50;5.57;;;;;;;17.78;67.18;99430.28;3140977;28;20036;-85
2021/12/31 02:09:23;;;;;;;10.13;5.47;;;;;;;17.78;67.35;99436.53;3140870;28;20044;-86
2021/12/31 02:10:55;;;;;;;9.15;5.30;;;;;;;17.79;67.36;99429.31;3137374;28;20527;-85
2021/12/31 02:12:27;;;;;;;14.18;5.65;;;;;;;17.80;67.22;99434.50;3138201;28;20044;-87
2021/12/31 02:14:02;;;;;;;10.77;5.65;;;;;;;17.80;67.07;99433.63;3141569;28;20419;-86
2021/12/31 02:15:35;;;;;;;11.95;6.45;;;;;;;17.79;67.34;99437.34;3139091;28;20041;-85
2021/12/31 02:17:09;;;;;;;11.32;5.47;;;;;;;17.78;67.21;99424.94;3142021;28;20132;-87
2021/12/31 02:18:43;;;;;;;7.53;4.57;;;;;;;17.78;67.16;99430.28;3141827;28;20045;-86
2021/12/31 02:20:17;;;;;;;9.82;5.15;;;;;;;17.78;67.22;99432.97;3142484;28;21127;-86
2021/12/31 02:21:49;;;;;;;9.75;5.30;;;;;;;17.76;67.33;99430.47;3141549;28;20098;-86
2021/12/31 02:23:24;;;;;;;15.18;6.60;;;;;;;17.75;67.33;99431.47;3138398;28;20335;-85
2021/12/31 02:25:00;;;;;;;11.32;5.97;;;;;;;17.75;67.17;99434.16;3141907;28;20420;-86
2021/12/31 02:26:32;;;;;;;9.45;4.50;;;;;;;17.73;67.32;99430.00;3141294;28;20557;-85
2021/12/31 02:28:04;;;;;;;11.73;5.90;;;;;;;17.72;67.01;99428.31;3142218;28;20051;-86
2021/12/31 02:29:36;;;;;;;10.70;5.15;;;;;;;17.72;67.19;99428.31;3138831;28;20045;-87
2021/12/31 02:31:08;;;;;;;9.10;4.80;;;;;;;17.71;67.34;99423.97;3139738;28;20037;-85
2021/12/31 02:32:40;;;;;;;10.35;4.95;;;;;;;17.68;67.12;99440.41;3139755;28;20059;-85
2021/12/31 02:34:12;;;;;;;14.75;4.97;;;;;;;17.69;67.15;99431.34;3141410;28;20573;-86
2021/12/31 02:35:46;;;;;;;16.48;5.63;;;;;;;17.67;66.97;99433.38;3140706;28;20592;-86
2021/12/31 02:37:18;;;;;;;9.18;5.35;;;;;;;17.68;66.83;99435.03;3141004;28;20041;-86
2021/12/31 02:38:50;;;;;;;9.65;5.35;;;;;;;17.67;67.08;99436.91;3137323;28;20457;-86
2021/12/31 02:40:24;;;;;;;8.95;4.75;;;;;;;17.65;67.10;99436.25;3140570;28;20048;-85
2021/12/31 02:41:56;;;;;;;11.95;5.07;;;;;;;17.65;67.16;99439.75;3142763;28;20044;-86
2021/12/31 02:43:27;;;;;;;8.95;4.75;;;;;;;17.63;67.04;99444.47;3140674;28;20893;-86
2021/12/31 02:44:59;;;;;;;8.00;4.68;;;;;;;17.64;67.12;99445.31;3146574;28;20039;-87
2021/12/31 02:46:31;;;;;;;12.35;5.90;;;;;;;17.62;67.01;99441.97;3137996;28;20514;-88
2021/12/31 02:48:05;;;;;;;7.82;3.80;;;;;;;17.63;67.10;99440.94;3141843;28;20041;-85
2021/12/31 02:49:41;;;;;;;10.02;4.97;;;;;;;17.61;67.05;99446.50;3140862;28;20052;-85
2021/12/31 02:51:14;;;;;;;10.38;5.03;;;;;;;17.60;67.11;99450.16;3140709;28;20131;-87
2021/12/31 02:52:47;;;;;;;10.55;4.93;;;;;;;17.59;67.15;99445.81;3140855;28;20075;-87
2021/12/31 02:54:21;;;;;;;12.00;4.25;;;;;;;17.58;67.11;99443.34;3140794;28;20048;-88
2021/12/31 02:56:01;;;;;;;8.88;5.18;;;;;;;17.58;67.24;99449.53;3149601;28;20037;-87
2021/12/31 02:57:33;;;;;;;13.80;5.25;;;;;;;17.57;67.00;99442.47;3140104;28;20040;-88
2021/12/31 02:59:06;;;;;;;10.45;4.43;;;;;;;17.57;67.01;99445.16;3141203;28;20056;-86
2021/12/31 03:00:42;;;;;;;6.95;3.90;;;;;;;17.56;66.98;99451.56;3141073;28;20410;-86
2021/12/31 03:02:15;;;;;;;10.35;4.65;;;;;;;17.54;67.02;99448.19;3141554;28;20127;-85
2021/12/31 03:03:49;;;;;;;10.13;4.63;;;;;;;17.54;67.11;99445.53;3136642;28;20146;-86
2021/12/31 03:05:23;;;;;;;14.38;6.50;;;;;;;17.53;67.04;99440.34;3147105;28;20059;-86
2021/12/31 03:06:57;;;;;;;12.05;5.45;;;;;;;17.53;66.99;99443.03;3147556;28;20052;-87
2021/12/31 03:08:31;;;;;;;8.93;5.30;;;;;;;17.49;66.92;99437.16;3139996;28;20396;-87
2021/12/31 03:10:03;;;;;;;9.82;4.57;;;;;;;17.51;66.89;99447.72;3142360;28;20097;-85
2021/12/31 03:11:36;;;;;;;11.63;5.40;;;;;;;17.51;66.84;99447.72;3142030;28;20090;-87
2021/12/31 03:13:09;;;;;;;14.20;6.22;;;;;;;17.49;66.96;99442.53;3141275;28;20152;-85
2021/12/31 03:14:43;;;;;;;15.27;5.70;;;;;;;17.50;67.07;99443.38;3140949;28;20186;-86
2021/12/31 03:16:15;;;;;;;6.55;5.07;;;;;;;17.49;66.83;99439.84;3140062;28;20310;-85
2021/12/31 03:17:48;;;;;;;9.73;4.63;;;;;;;17.47;66.91;99447.25;3148965;28;20044;-86
2021/12/31 03:19:21;;;;;;;5.28;3.90;;;;;;;17.48;66.91;99443.56;3138463;28;20118;-86
2021/12/31 03:21:01;;;;;;;7.93;4.20;;;;;;;17.48;66.79;99450.78;3140402;28;22906;-86
2021/12/31 03:22:35;;;;;;;7.82;4.57;;;;;;;17.46;66.94;99445.56;3139624;28;20298;-84
2021/12/31 03:24:07;;;;;;;8.18;4.45;;;;;;;17.45;66.91;99446.59;3143476;28;20055;-86
2021/12/31 03:25:39;;;;;;;7.75;4.20;;;;;;;17.45;66.85;99441.22;3140700;28;20048;-86
2021/12/31 03:27:10;;;;;;;8.35;4.65;;;;;;;17.44;66.73;99439.56;3140652;28;20044;-87
2021/12/31 03:28:42;;;;;;;7.68;3.90;;;;;;;17.41;66.98;99437.22;3140028;28;20048;-86
2021/12/31 03:30:16;;;;;;;8.73;4.35;;;;;;;17.42;67.01;99439.72;3141936;28;20048;-86
2021/12/31 03:31:48;;;;;;;8.00;4.43;;;;;;;17.42;67.02;99438.91;3141466;28;20056;-86
2021/12/31 03:33:20;;;;;;;10.95;3.80;;;;;;;17.41;67.02;99431.84;3142236;28;20251;-86
2021/12/31 03:34:52;;;;;;;8.73;4.90;;;;;;;17.40;66.96;99430.19;3143863;28;20239;-87
2021/12/31 03:36:24;;;;;;;12.10;4.47;;;;;;;17.38;66.88;99429.53;3143894;28;20419;-86
2021/12/31 03:37:58;;;;;;;12.35;4.95;;;;;;;17.39;66.99;99433.88;3145133;28;20048;-85
2021/12/31 03:39:29;;;;;;;12.85;5.72;;;;;;;17.37;67.00;99427.84;3144683;28;20041;-85
2021/12/31 03:41:01;;;;;;;6.78;3.92;;;;;;;17.35;67.15;99428.03;3145072;28;20044;-84
2021/12/31 03:42:33;;;;;;;8.27;4.97;;;;;;;17.36;67.06;99431.56;3144497;28;20044;-85
2021/12/31 03:44:07;;;;;;;7.05;3.85;;;;;;;17.36;67.01;99426.19;3146129;28;20618;-86
2021/12/31 03:45:40;;;;;;;9.88;4.50;;;;;;;17.34;67.18;99434.41;3144238;28;20568;-85
2021/12/31 03:47:12;;;;;;;7.88;5.25;;;;;;;17.34;67.15;99430.91;3142880;28;20048;-85
2021/12/31 03:48:44;;;;;;;10.70;4.03;;;;;;;17.32;67.24;99435.59;3140646;28;20045;-86
2021/12/31 03:50:16;;;;;;;6.53;3.80;;;;;;;17.32;67.46;99430.22;3145918;28;20040;-88
2021/12/31 03:51:48;;;;;;;9.02;5.35;;;;;;;17.30;67.39;99432.25;3144307;28;20052;-86
2021/12/31 03:53:21;;;;;;;8.30;4.55;;;;;;;17.30;67.48;99432.25;3144339;28;20052;-85
2021/12/31 03:54:53;;;;;;;6.93;4.13;;;;;;;17.29;67.36;99433.25;3142889;28;20040;-85
2021/12/31 03:56:30;;;;;;;9.90;3.90;;;;;;;17.27;67.48;99433.44;3146756;28;20093;-87
2021/12/31 03:58:02;;;;;;;7.03;3.92;;;;;;;17.27;67.28;99429.91;3157089;28;20454;-85
2021/12/31 03:59:33;;;;;;;9.32;3.60;;;;;;;17.25;67.54;99429.28;3157498;28;20055;-85
2021/12/31 04:01:05;;;;;;;7.55;3.95;;;;;;;17.23;67.49;99428.59;3157316;28;20086;-85
2021/12/31 04:02:38;;;;;;;8.48;4.70;;;;;;;17.25;67.60;99438.16;3156369;28;20230;-85
2021/12/31 04:04:10;;;;;;;13.93;4.25;;;;;;;17.24;67.42;99428.41;3158099;28;20239;-85
2021/12/31 04:05:43;;;;;;;8.75;3.97;;;;;;;17.22;67.35;99433.16;3156439;28;20068;-86
2021/12/31 04:07:14;;;;;;;8.52;4.63;;;;;;;17.22;67.45;99432.28;3156956;28;20048;-85
2021/12/31 04:08:48;;;;;;;7.80;4.03;;;;;;;17.19;67.70;99430.81;3158507;28;20052;-86
2021/12/31 04:10:23;;;;;;;5.93;3.50;;;;;;;17.21;67.46;99444.84;3163274;28;20044;-87
2021/12/31 04:11:54;;;;;;;5.30;4.20;;;;;;;17.22;67.78;99441.19;3160294;28;20048;-86
2021/12/31 04:13:26;;;;;;;9.25;4.72;;;;;;;17.19;67.53;99453.09;3130588;28;20048;-86
2021/12/31 04:14:57;;;;;;;5.93;3.03;;;;;;;17.20;67.65;99457.44;3135169;28;20057;-86
2021/12/31 04:16:30;;;;;;;8.63;4.17;;;;;;;17.19;67.57;99447.72;3143905;28;20117;-87
2021/12/31 04:18:02;;;;;;;6.60;4.05;;;;;;;17.18;67.70;99454.09;3144317;28;20318;-87
2021/12/31 04:19:34;;;;;;;8.00;3.90;;;;;;;17.18;67.73;99458.63;3144286;28;20044;-85
2021/12/31 04:21:06;;;;;;;5.97;2.70;;;;;;;17.19;67.75;99446.91;3144754;28;20048;-85
2021/12/31 04:22:45;;;;;;;6.38;2.80;;;;;;;17.19;67.60;99460.31;3143669;28;20054;-85
2021/12/31 04:24:30;;;;;;;9.23;4.20;;;;;;;17.19;67.62;99460.31;3143178;28;20102;-85
2021/12/31 04:26:02;;;;;;;7.85;4.43;;;;;;;17.16;67.99;99456.13;3144315;28;20044;-85
2021/12/31 04:27:34;;;;;;;7.75;3.80;;;;;;;17.18;67.92;99464.81;3144532;28;20037;-84
2021/12/31 04:29:06;;;;;;;7.97;3.83;;;;;;;17.17;67.53;99463.16;3145225;28;20051;-86
2021/12/31 04:30:37;;;;;;;5.65;3.53;;;;;;;17.18;67.69;99461.28;3143997;28;20051;-85
2021/12/31 04:32:09;;;;;;;6.95;3.42;;;;;;;17.14;67.79;99463.50;3136921;28;20110;-84
2021/12/31 04:33:47;;;;;;;5.95;3.95;;;;;;;17.13;67.78;99463.66;3143442;28;20040;-85
2021/12/31 04:35:19;;;;;;;10.88;4.88;;;;;;;17.10;67.58;99456.78;3138649;28;20067;-85
2021/12/31 04:36:51;;;;;;;8.90;3.53;;;;;;;17.11;67.53;99461.16;3150364;28;20117;-86
2021/12/31 04:38:23;;;;;;;7.25;4.38;;;;;;;17.12;67.73;99468.19;3142884;28;20097;-85
2021/12/31 04:39:56;;;;;;;16.63;4.82;;;;;;;17.09;67.99;99468.53;3142404;28;20102;-86
2021/12/31 04:41:28;;;;;;;12.05;4.07;;;;;;;17.11;67.82;99476.41;3143279;28;20072;-86
2021/12/31 04:43:00;;;;;;;8.75;3.22;;;;;;;17.08;68.00;99461.50;3143633;28;20041;-86
2021/12/31 04:44:31;;;;;;;5.65;3.28;;;;;;;17.09;67.83;99468.53;3143021;28;20041;-85
2021/12/31 04:46:03;;;;;;;7.63;3.92;;;;;;;17.08;67.91;99472.25;3143459;28;20063;-86
2021/12/31 04:47:34;;;;;;;5.55;3.35;;;;;;;17.09;68.25;99479.25;3142280;28;20048;-85
2021/12/31 04:49:07;;;;;;;7.22;3.60;;;;;;;17.08;68.04;99477.59;3143884;28;20393;-85
2021/12/31 04:50:38;;;;;;;8.60;3.72;;;;;;;17.05;67.99;99483.31;3143287;28;20124;-85
2021/12/31 04:52:10;;;;;;;6.93;4.10;;;;;;;17.04;68.04;99483.47;3142610;28;20052;-86
2021/12/31 04:53:42;;;;;;;6.10;3.53;;;;;;;17.04;67.97;99484.28;3143198;28;20106;-86
2021/12/31 04:55:15;;;;;;;6.03;3.70;;;;;;;17.03;68.02;99479.13;3142871;28;20052;-86
2021/12/31 04:56:51;;;;;;;6.50;3.83;;;;;;;17.03;67.89;99485.31;3140282;28;20064;-86
2021/12/31 04:58:23;;;;;;;4.53;2.78;;;;;;;17.03;68.18;99485.31;3143211;28;20049;-87
2021/12/31 04:59:55;;;;;;;5.20;3.10;;;;;;;17.01;67.94;99487.31;3144445;28;20052;-87
2021/12/31 05:01:27;;;;;;;7.18;3.47;;;;;;;17.01;67.89;99489.16;3143714;28;20106;-86
2021/12/31 05:03:06;;;;;;;9.00;3.35;;;;;;;17.01;68.07;99494.53;3144608;28;20048;-85
2021/12/31 05:04:37;;;;;;;8.27;3.28;;;;;;;17.00;67.88;99492.88;3143254;28;20040;-85
2021/12/31 05:06:09;;;;;;;5.28;3.00;;;;;;;17.01;67.92;99491.84;3138793;28;20084;-86
2021/12/31 05:07:41;;;;;;;7.47;2.53;;;;;;;17.01;67.95;99484.66;3141909;28;20271;-85
2021/12/31 05:09:13;;;;;;;6.00;4.10;;;;;;;17.03;68.13;99484.50;3142422;28;20045;-85
2021/12/31 05:10:46;;;;;;;5.38;3.47;;;;;;;17.07;68.36;99488.47;3141559;28;20048;-85
2021/12/31 05:12:23;;;;;;;8.40;3.17;;;;;;;17.11;68.38;99487.97;3140743;28;20122;-86
2021/12/31 05:13:55;;;;;;;9.13;3.47;;;;;;;17.15;68.39;99489.28;3143505;28;20443;-86
2021/12/31 05:15:31;;;;;;;7.10;3.38;;;;;;;17.20;68.39;99491.44;3142973;28;20082;-84
2021/12/31 05:17:03;;;;;;;3.97;2.78;;;;;;;17.24;68.15;99487.41;3142742;28;20438;-86
2021/12/31 05:18:35;;;;;;;5.03;2.88;;;;;;;17.30;68.12;99499.28;3143087;28;20041;-86
2021/12/31 05:20:08;;;;;;;7.28;3.65;;;;;;;17.34;67.99;99497.94;3143365;28;20530;-86
2021/12/31 05:21:39;;;;;;;8.48;2.97;;;;;;;17.39;67.87;99495.56;3143367;28;20045;-86
2021/12/31 05:23:11;;;;;;;5.13;3.55;;;;;;;17.43;67.75;99497.72;3143707;28;20052;-87
2021/12/31 05:24:43;;;;;;;7.38;3.20;;;;;;;17.49;67.62;99504.22;3141562;28;20048;-85
2021/12/31 05:26:16;;;;;;;6.45;2.83;;;;;;;17.54;67.51;99495.66;3141700;28;20048;-86
2021/12/31 05:27:49;;;;;;;5.80;3.20;;;;;;;17.56;67.45;99497.16;3142190;28;20048;-84
2021/12/31 05:29:21;;;;;;;4.63;2.30;;;;;;;17.62;67.48;99500.97;3142972;28;20048;-86
2021/12/31 05:30:53;;;;;;;5.90;3.15;;;;;;;17.62;67.24;99496.44;3142256;28;20040;-85
2021/12/31 05:32:25;;;;;;;5.50;2.70;;;;;;;17.67;67.10;99500.47;3140979;28;20048;-85
2021/12/31 05:33:57;;;;;;;5.50;3.20;;;;;;;17.70;67.23;99494.75;3140740;28;20512;-85
2021/12/31 05:35:29;;;;;;;6.82;3.10;;;;;;;17.75;67.02;99503.09;3139587;28;20037;-86
2021/12/31 05:37:01;;;;;;;5.75;3.30;;;;;;;17.77;66.95;99503.72;3142130;28;20060;-86
2021/12/31 05:38:32;;;;;;;4.50;2.38;;;;;;;17.80;67.20;99506.09;3141726;28;20102;-86
2021/12/31 05:40:05;;;;;;;5.53;2.30;;;;;;;17.82;67.09;99509.44;3142601;28;20060;-86
2021/12/31 05:41:39;;;;;;;5.93;3.33;;;;;;;17.85;67.01;99501.03;3140828;28;20052;-85
2021/12/31 05:43:11;;;;;;;9.10;3.35;;;;;;;17.90;66.90;99513.94;3141490;28;20056;-86
2021/12/31 05:44:44;;;;;;;5.57;3.30;;;;;;;17.92;66.94;99511.91;3141609;28;20057;-86
2021/12/31 05:46:16;;;;;;;5.57;2.70;;;;;;;17.93;66.66;99506.34;3142760;28;20128;-86
2021/12/31 05:47:49;;;;;;;4.55;2.78;;;;;;;17.95;66.78;99507.00;3142096;28;20079;-87
2021/12/31 05:49:21;;;;;;;3.17;2.20;;;;;;;18.01;66.74;99513.53;3140600;28;20059;-85
2021/12/31 05:50:54;;;;;;;5.00;3.03;;;;;;;18.02;66.64;99512.50;3136759;28;20047;-85
2021/12/31 05:52:25;;;;;;;2.97;2.33;;;;;;;18.05;66.84;99512.13;3141459;28;20044;-85
2021/12/31 05:53:58;;;;;;;10.32;2.53;;;;;;;18.08;66.71;99507.25;3143489;28;20494;-84
2021/12/31 05:55:31;;;;;;;4.75;2.90;;;;;;;18.12;66.84;99507.72;3140115;28;20036;-87
2021/12/31 05:57:05;;;;;;;4.35;2.58;;;;;;;18.15;66.74;99515.44;3141745;28;20101;-86
2021/12/31 05:58:36;;;;;;;3.78;2.00;;;;;;;18.16;66.76;99508.19;3139622;28;20428;-85
2021/12/31 06:00:09;;;;;;;6.47;3.28;;;;;;;18.19;66.48;99515.91;3142068;28;20064;-86
2021/12/31 06:01:41;;;;;;;5.57;2.95;;;;;;;18.22;66.49;99520.91;3132908;28;20499;-86
2021/12/31 06:03:13;;;;;;;5.88;3.80;;;;;;;18.21;66.49;99517.38;3141632;28;20044;-85
2021/12/31 06:04:44;;;;;;;5.20;2.90;;;;;;;18.26;66.33;99528.44;3141391;28;20043;-85
2021/12/31 06:06:16;;;;;;;6.13;3.42;;;;;;;18.27;66.35;99522.03;3139449;28;20044;-86
2021/12/31 06:07:48;;;;;;;5.10;2.28;;;;;;;18.28;66.35;99521.03;3138483;28;20052;-87
2021/12/31 06:09:20;;;;;;;4.60;3.22;;;;;;;18.29;66.26;99524.56;3137339;28;20049;-87
2021/12/31 06:10:52;;;;;;;8.70;3.08;;;;;;;18.30;66.25;99516.34;3153765;28;20056;-86
2021/12/31 06:12:26;;;;;;;3.72;2.55;;;;;;;18.31;66.23;99522.53;3151162;28;20047;-85
2021/12/31 06:14:02;;;;;;;3.70;2.40;;;;;;;18.29;66.08;99520.00;3155026;28;20128;-85
2021/12/31 06:15:34;;;;;;;7.47;2.30;;;;;;;18.31;66.31;99522.53;3152979;28;20071;-85
2021/12/31 06:17:08;;;;;;;6.03;3.17;;;;;;;18.31;66.31;99527.91;3154011;28;20044;-85
2021/12/31 06:18:40;;;;;;;6.03;2.80;;;;;;;18.32;66.37;99532.25;3154148;28;20092;-83
2021/12/31 06:20:13;;;;;;;7.72;2.60;;;;;;;18.30;66.40;99528.91;3147532;28;20127;-86
2021/12/31 06:21:46;;;;;;;4.22;3.03;;;;;;;18.31;66.14;99533.28;3153223;28;20564;-83
2021/12/31 06:23:18;;;;;;;6.72;3.78;;;;;;;18.30;66.22;99526.22;3152932;28;20047;-87
2021/12/31 06:24:50;;;;;;;7.70;2.60;;;;;;;18.29;66.34;99527.25;3154838;28;20077;-85
2021/12/31 06:26:22;;;;;;;4.85;2.45;;;;;;;18.31;66.35;99534.09;3153510;28;20047;-85
2021/12/31 06:27:55;;;;;;;4.90;2.47;;;;;;;18.35;66.17;99539.13;3154123;28;20101;-86
2021/12/31 06:29:27;;;;;;;5.28;2.38;;;;;;;18.33;66.26;99535.75;3152266;28;20051;-85
2021/12/31 06:30:59;;;;;;;5.78;2.60;;;;;;;18.35;65.87;99534.56;3153634;28;20130;-85
2021/12/31 06:32:31;;;;;;;5.60;2.72;;;;;;;18.36;66.02;99532.72;3153779;28;20129;-86
2021/12/31 06:34:03;;;;;;;3.75;2.40;;;;;;;18.36;65.97;99538.09;3153893;28;20048;-86
2021/12/31 06:35:34;;;;;;;5.13;2.35;;;;;;;18.35;66.01;99539.94;3151982;28;20043;-86
2021/12/31 06:37:06;;;;;;;3.38;2.40;;;;;;;18.39;66.02;99552.00;3151553;28;20051;-87
2021/12/31 06:38:38;;;;;;;7.38;2.95;;;;;;;18.37;66.11;99548.66;3150178;28;20090;-89
2021/12/31 06:40:12;;;;;;;5.10;2.25;;;;;;;18.39;65.93;99552.00;3154458;28;20048;-86
2021/12/31 06:41:44;;;;;;;4.65;2.45;;;;;;;18.38;65.81;99547.63;3153100;28;20121;-86
2021/12/31 06:43:17;;;;;;;3.92;2.50;;;;;;;18.39;66.25;99552.00;3152515;28;20411;-86
2021/12/31 06:44:49;;;;;;;2.83;1.90;;;;;;;18.41;65.95;99554.50;3153571;28;20195;-86
2021/12/31 06:46:21;;;;;;;4.85;2.33;;;;;;;18.40;66.03;99552.84;3152553;28;20423;-84
2021/12/31 06:47:53;;;;;;;5.28;2.45;;;;;;;18.38;65.89;99552.19;3154113;28;20048;-86
2021/12/31 06:49:25;;;;;;;4.57;3.10;;;;;;;18.41;65.92;99557.19;3153487;28;20135;-85
2021/12/31 06:50:56;;;;;;;7.38;2.22;;;;;;;18.39;66.00;99557.38;3152327;28;20036;-87
2021/12/31 06:52:28;;;;;;;4.20;2.20;;;;;;;18.41;65.94;99551.81;3151848;28;20400;-86
2021/12/31 06:54:00;;;;;;;4.13;2.25;;;;;;;18.41;65.92;99565.25;3151679;28;20040;-85
2021/12/31 06:55:35;;;;;;;4.03;2.47;;;;;;;18.41;66.19;99566.06;3149263;28;20040;-86
2021/12/31 06:57:07;;;;;;;3.13;2.35;;;;;;;18.42;65.65;99567.78;3153209;28;20052;-86
2021/12/31 06:58:40;;;;;;;3.05;2.03;;;;;;;18.42;65.94;99561.56;3152039;28;20044;-85
2021/12/31 07:00:12;;;;;;;3.92;1.95;;;;;;;18.44;65.97;99571.13;3151508;28;20133;-87
2021/12/31 07:01:44;;;;;;;10.50;2.60;;;;;;;18.44;65.85;99568.44;3152492;28;20168;-85
2021/12/31 07:03:16;;;;;;;4.25;2.25;;;;;;;18.44;66.09;99573.81;3155492;28;20424;-85
2021/12/31 07:04:48;;;;;;;7.03;2.55;;;;;;;18.44;65.96;99571.13;3151994;28;20047;-85
2021/12/31 07:06:20;;;;;;;6.15;2.72;;;;;;;18.46;65.93;99568.22;3152664;28;20036;-86
2021/12/31 07:07:52;;;;;;;3.92;2.28;;;;;;;18.47;65.74;99569.88;3138761;28;20060;-85
2021/12/31 07:09:24;;;;;;;6.43;3.03;;;;;;;18.46;65.97;99569.06;3138613;28;20051;-87
2021/12/31 07:10:56;;;;;;;3.65;2.58;;;;;;;18.48;65.66;99572.41;3141571;28;20400;-83
2021/12/31 07:12:28;;;;;;;4.72;2.03;;;;;;;18.50;65.84;99577.63;3139716;28;20051;-86
2021/12/31 07:14:01;;;;;;;4.47;2.88;;;;;;;18.51;66.12;99580.09;3141657;28;20041;-87
2021/12/31 07:15:33;;;;;;;3.47;2.20;;;;;;;18.50;65.76;99580.31;3139891;28;20036;-88